createdAt,value
2022-07-29T00:01:41.857Z,75.80
2022-07-29T00:04:08.811Z,76.80
2022-07-29T00:06:35.535Z,77.50
2022-07-29T00:09:02.388Z,80.40
2022-07-29T00:11:37.612Z,85.60
2022-07-29T00:14:05.372Z,90.50
2022-07-29T00:16:32.342Z,90.00
2022-07-29T00:19:02.133Z,90.00
2022-07-29T00:21:29.525Z,92.10
2022-07-29T00:40:28.379Z,90.90
2022-07-29T00:42:55.198Z,91.30
2022-07-29T00:45:59.493Z,90.90
2022-07-29T00:48:26.249Z,91.40
2022-07-29T00:50:53.024Z,91.90
2022-07-29T00:53:21.367Z,91.40
2022-07-29T00:59:43.089Z,87.60
2022-07-29T01:02:09.863Z,92.20
2022-07-29T01:05:14.043Z,92.90
2022-07-29T01:07:41.001Z,95.70
2022-07-29T01:10:08.808Z,97.50
2022-07-29T01:13:13.084Z,99.20
2022-07-29T01:15:49.216Z,99.90
2022-07-29T01:18:22.111Z,99.90
2022-07-29T01:21:07.269Z,99.90
2022-07-29T01:23:34.074Z,99.90
2022-07-29T01:26:20.394Z,99.90
2022-07-29T01:29:04.051Z,99.90
2022-07-29T01:31:37.139Z,99.90
2022-07-29T01:34:10.955Z,99.90
2022-07-29T01:36:41.472Z,99.90
2022-07-29T01:39:22.640Z,99.90
2022-07-29T01:41:51.791Z,99.90
2022-07-29T01:44:21.325Z,99.90
2022-07-29T01:46:53.563Z,99.90
2022-07-29T01:49:26.747Z,99.90
2022-07-29T01:52:01.265Z,99.90
2022-07-29T01:54:46.976Z,99.90
2022-07-29T01:57:15.066Z,99.90
2022-07-29T01:59:42.859Z,99.90
2022-07-29T02:02:11.275Z,99.90
2022-07-29T02:04:38.760Z,99.90
2022-07-29T02:07:06.901Z,99.90
2022-07-29T02:09:35.635Z,99.90
2022-07-29T02:12:04.235Z,99.90
2022-07-29T02:18:49.858Z,99.90
2022-07-29T02:21:20.400Z,99.90
2022-07-29T02:23:50.903Z,99.90
2022-07-29T02:26:20.219Z,99.90
2022-07-29T02:28:47.463Z,99.90
2022-07-29T02:31:14.749Z,99.90
2022-07-29T02:33:41.985Z,99.90
2022-07-29T02:36:09.173Z,99.90
2022-07-29T02:38:51.647Z,99.90
2022-07-29T02:41:21.014Z,99.90
2022-07-29T02:43:53.810Z,99.90
2022-07-29T02:46:28.422Z,99.90
2022-07-29T02:48:58.872Z,99.90
2022-07-29T02:51:44.488Z,99.90
2022-07-29T02:54:12.369Z,99.90
2022-07-29T02:56:40.450Z,99.90
2022-07-29T02:59:10.982Z,99.90
2022-07-29T03:01:40.231Z,99.90
2022-07-29T03:04:09.461Z,99.90
2022-07-29T03:06:38.561Z,99.90
2022-07-29T03:09:12.473Z,99.90
2022-07-29T03:11:49.606Z,99.90
2022-07-29T03:14:55.232Z,99.90
2022-07-29T03:17:22.563Z,99.90
2022-07-29T03:19:49.312Z,99.90
2022-07-29T03:22:16.206Z,99.90
2022-07-29T03:24:46.012Z,99.90
2022-07-29T03:27:14.150Z,99.90
2022-07-29T03:29:40.968Z,99.90
2022-07-29T03:32:13.044Z,99.90
2022-07-29T03:34:40.838Z,99.90
2022-07-29T03:37:08.146Z,99.90
2022-07-29T03:39:39.672Z,99.90
2022-07-29T03:42:07.826Z,99.90
2022-07-29T03:44:35.674Z,99.90
2022-07-29T03:47:03.150Z,99.90
2022-07-29T03:49:34.027Z,99.90
2022-07-29T03:52:04.212Z,99.90
2022-07-29T03:54:36.145Z,99.90
2022-07-29T03:57:04.625Z,99.90
2022-07-29T03:59:38.214Z,99.90
2022-07-29T04:02:10.176Z,99.90
2022-07-29T04:04:38.314Z,99.90
2022-07-29T04:07:14.867Z,99.90
2022-07-29T04:09:52.657Z,99.90
2022-07-29T04:12:19.401Z,99.90
2022-07-29T04:19:05.071Z,99.90
2022-07-29T04:21:31.754Z,99.90
2022-07-29T04:24:00.284Z,99.90
2022-07-29T04:26:27.204Z,99.90
2022-07-29T04:28:54.037Z,99.90
2022-07-29T04:31:25.580Z,99.90
2022-07-29T04:33:59.982Z,99.90
2022-07-29T04:36:29.277Z,99.90
2022-07-29T04:41:38.029Z,99.90
2022-07-29T04:44:07.500Z,99.90
2022-07-29T04:46:36.822Z,99.90
2022-07-29T04:49:06.614Z,99.90
2022-07-29T04:51:33.594Z,99.90
2022-07-29T04:54:00.516Z,99.90
2022-07-29T04:56:27.384Z,99.90
2022-07-29T04:59:02.980Z,99.90
2022-07-29T05:01:29.971Z,99.90
2022-07-29T05:04:00.332Z,99.90
2022-07-29T05:06:27.786Z,99.90
2022-07-29T05:08:58.353Z,99.90
2022-07-29T05:11:29.989Z,99.90
2022-07-29T05:13:57.209Z,99.90
2022-07-29T05:20:42.534Z,99.90
2022-07-29T05:23:13.888Z,99.90
2022-07-29T05:25:44.396Z,99.90
2022-07-29T05:28:12.312Z,99.90
2022-07-29T05:30:41.621Z,99.90
2022-07-29T05:33:35.515Z,99.90
2022-07-29T05:36:07.997Z,99.90
2022-07-29T05:38:35.495Z,99.90
2022-07-29T05:41:02.913Z,99.90
2022-07-29T05:43:34.046Z,99.90
2022-07-29T05:46:01.257Z,99.90
2022-07-29T05:48:28.327Z,99.90
2022-07-29T05:50:55.783Z,99.90
2022-07-29T05:53:22.901Z,99.90
2022-07-29T05:55:50.238Z,99.90
2022-07-29T05:58:17.267Z,99.90
2022-07-29T06:00:44.332Z,99.90
2022-07-29T06:03:11.866Z,99.90
2022-07-29T06:05:41.649Z,99.90
2022-07-29T06:08:08.662Z,99.90
2022-07-29T06:10:36.104Z,99.90
2022-07-29T06:13:03.087Z,99.90
2022-07-29T06:19:48.821Z,99.90
2022-07-29T06:22:24.758Z,99.90
2022-07-29T06:24:51.540Z,99.90
2022-07-29T06:27:18.232Z,99.90
2022-07-29T06:29:45.035Z,99.90
2022-07-29T06:32:13.480Z,99.90
2022-07-29T06:34:48.840Z,98.90
2022-07-29T06:37:15.914Z,98.90
2022-07-29T06:39:42.656Z,98.70
2022-07-29T06:42:10.038Z,97.90
2022-07-29T06:44:42.862Z,97.40
2022-07-29T06:47:09.605Z,96.70
2022-07-29T06:49:36.662Z,95.70
2022-07-29T06:52:03.437Z,95.20
2022-07-29T06:54:30.219Z,95.60
2022-07-29T06:56:57.010Z,95.90
2022-07-29T06:59:32.090Z,96.00
2022-07-29T07:02:01.946Z,95.70
2022-07-29T07:04:28.764Z,95.80
2022-07-29T07:06:56.596Z,95.80
2022-07-29T07:09:23.335Z,95.40
2022-07-29T07:12:01.904Z,94.40
2022-07-29T07:14:28.995Z,94.50
2022-07-29T07:17:33.418Z,94.20
2022-07-29T07:20:00.232Z,93.40
2022-07-29T07:22:27.010Z,93.80
2022-07-29T07:24:54.238Z,93.60
2022-07-29T07:27:28.413Z,93.70
2022-07-29T07:29:55.258Z,92.70
2022-07-29T07:32:21.980Z,91.40
2022-07-29T07:34:48.902Z,92.40
2022-07-29T07:37:25.763Z,92.50
2022-07-29T07:39:52.943Z,92.20
2022-07-29T07:42:23.253Z,92.00
2022-07-29T07:45:12.022Z,91.40
2022-07-29T07:47:38.833Z,91.70
2022-07-29T08:36:32.269Z,82.70
2022-07-29T08:38:59.009Z,81.70
2022-07-29T08:41:26.615Z,82.90
2022-07-29T08:43:54.077Z,81.40
2022-07-29T08:46:21.558Z,80.40
2022-07-29T08:48:48.909Z,80.70
2022-07-29T08:51:17.149Z,82.70
2022-07-29T08:53:44.834Z,82.00
2022-07-29T08:56:17.866Z,81.20
2022-07-29T08:58:48.741Z,80.50
2022-07-29T09:01:34.956Z,80.70
2022-07-29T09:04:04.684Z,81.30
2022-07-29T09:06:36.327Z,79.70
2022-07-29T09:09:08.969Z,79.80
2022-07-29T09:11:35.804Z,80.90
2022-07-29T09:14:02.927Z,79.50
2022-07-29T09:17:10.500Z,80.40
2022-07-29T09:19:44.816Z,81.70
2022-07-29T09:22:13.208Z,79.90
2022-07-29T09:24:40.109Z,76.80
2022-07-29T09:27:12.364Z,75.60
2022-07-29T09:29:39.836Z,74.10
2022-07-29T09:32:09.038Z,74.00
2022-07-29T09:34:35.770Z,73.50
2022-07-29T09:37:07.070Z,70.30
2022-07-29T09:39:39.007Z,67.40
2022-07-29T09:42:07.904Z,66.70
2022-07-29T09:44:50.798Z,65.90
2022-07-29T09:47:32.043Z,65.00
2022-07-29T09:50:00.489Z,64.60
2022-07-29T09:52:27.925Z,62.70
2022-07-29T09:55:05.092Z,62.10
2022-07-29T09:57:34.186Z,63.00
2022-07-29T10:00:03.837Z,62.20
2022-07-29T10:02:45.271Z,63.20
2022-07-29T10:05:24.943Z,62.80
2022-07-29T10:15:10.000Z,60.60
2022-07-29T10:21:34.754Z,58.80
2022-07-29T10:28:25.719Z,58.40
2022-07-29T10:30:53.376Z,58.20
2022-07-29T10:33:25.181Z,58.50
2022-07-29T10:39:51.516Z,57.70
2022-07-29T10:42:19.983Z,59.10
2022-07-29T10:44:53.436Z,59.10
2022-07-29T10:47:20.838Z,57.90
2022-07-29T10:49:58.243Z,58.80
2022-07-29T10:52:53.919Z,58.70
2022-07-29T10:55:37.676Z,55.70
2022-07-29T10:58:25.275Z,56.60
2022-07-29T11:00:53.285Z,55.20
2022-07-29T11:03:49.442Z,55.80
2022-07-29T11:06:18.200Z,55.90
2022-07-29T11:09:12.483Z,56.10
2022-07-29T11:11:44.195Z,56.80
2022-07-29T11:14:50.385Z,55.00
2022-07-29T11:17:17.102Z,55.60
2022-07-29T11:19:51.001Z,56.00
2022-07-29T11:22:34.959Z,54.40
2022-07-29T11:25:18.038Z,55.20
2022-07-29T11:27:48.058Z,56.00
2022-07-29T11:30:14.977Z,54.80
2022-07-29T11:32:44.748Z,55.20
2022-07-29T11:35:38.526Z,53.60
2022-07-29T11:42:30.461Z,54.70
2022-07-29T11:45:42.876Z,54.70
2022-07-29T11:48:29.937Z,54.10
2022-07-29T11:50:55.841Z,53.60
2022-07-29T11:53:25.860Z,53.20
2022-07-29T11:56:02.635Z,53.90
2022-07-29T11:58:30.260Z,53.90
2022-07-29T12:01:06.053Z,53.60
2022-07-29T12:03:35.887Z,54.60
2022-07-29T12:06:15.045Z,53.60
2022-07-29T12:08:43.503Z,53.70
2022-07-29T12:11:17.619Z,52.70
2022-07-29T12:13:47.347Z,54.30
2022-07-29T12:16:16.274Z,52.70
2022-07-29T12:18:56.705Z,53.10
2022-07-29T12:21:25.612Z,52.60
2022-07-29T12:23:57.072Z,52.30
2022-07-29T12:26:28.867Z,52.80
2022-07-29T12:28:55.755Z,52.00
2022-07-29T12:31:43.236Z,51.20
2022-07-29T12:34:11.082Z,50.60
2022-07-29T12:40:56.687Z,51.40
2022-07-29T12:43:24.336Z,51.50
2022-07-29T12:45:52.091Z,50.90
2022-07-29T12:48:19.185Z,51.90
2022-07-29T12:50:59.400Z,51.10
2022-07-29T12:53:27.551Z,51.70
2022-07-29T12:55:55.593Z,50.20
2022-07-29T12:58:35.857Z,49.90
2022-07-29T13:01:07.048Z,50.00
2022-07-29T13:03:57.449Z,51.00
2022-07-29T13:06:30.663Z,50.60
2022-07-29T13:09:05.206Z,50.60
2022-07-29T13:11:42.186Z,51.70
2022-07-29T13:14:13.425Z,51.50
2022-07-29T13:16:59.513Z,52.00
2022-07-29T13:19:34.024Z,52.30
2022-07-29T13:22:01.207Z,52.20
2022-07-29T13:24:28.247Z,51.50
2022-07-29T13:26:56.911Z,51.50
2022-07-29T13:29:25.779Z,50.60
2022-07-29T13:31:56.375Z,50.10
2022-07-29T13:34:25.194Z,51.40
2022-07-29T13:36:51.958Z,50.90
2022-07-29T13:39:56.609Z,51.00
2022-07-29T13:42:23.849Z,51.50
2022-07-29T13:44:52.596Z,52.10
2022-07-29T13:47:20.106Z,52.40
2022-07-29T13:49:46.984Z,52.70
2022-07-29T13:52:14.248Z,52.30
2022-07-29T13:54:42.511Z,52.00
2022-07-29T13:57:11.728Z,52.20
2022-07-29T13:59:39.432Z,52.60
2022-07-29T14:02:06.556Z,52.40
2022-07-29T14:04:34.465Z,52.60
2022-07-29T14:07:03.569Z,52.90
2022-07-29T14:09:37.433Z,52.70
2022-07-29T14:12:09.010Z,53.70
2022-07-29T14:14:38.255Z,54.20
2022-07-29T14:17:07.349Z,55.20
2022-07-29T14:19:36.723Z,55.50
2022-07-29T14:22:04.808Z,56.20
2022-07-29T14:24:32.336Z,55.90
2022-07-29T14:26:59.294Z,55.50
2022-07-29T14:29:37.065Z,56.00
2022-07-29T14:32:06.021Z,55.90
2022-07-29T14:34:34.573Z,56.20
2022-07-29T14:37:01.671Z,56.00
2022-07-29T14:40:06.309Z,56.40
2022-07-29T14:42:32.986Z,56.20
2022-07-29T14:44:59.718Z,55.60
2022-07-29T14:47:26.578Z,56.60
2022-07-29T14:49:53.520Z,56.00
2022-07-29T14:52:20.504Z,56.00
2022-07-29T14:54:47.254Z,56.90
2022-07-29T14:57:14.050Z,56.80
2022-07-29T14:59:40.789Z,56.60
2022-07-29T15:02:07.501Z,57.30
2022-07-29T15:04:34.413Z,57.20
2022-07-29T15:07:01.749Z,57.90
2022-07-29T15:09:29.388Z,57.80
2022-07-29T15:11:56.855Z,60.90
2022-07-29T15:14:23.895Z,63.70
2022-07-29T15:16:52.721Z,64.50
2022-07-29T15:19:20.136Z,64.00
2022-07-29T15:21:48.636Z,63.40
2022-07-29T15:24:19.794Z,63.70
2022-07-29T15:26:49.382Z,62.30
2022-07-29T15:29:16.280Z,61.00
2022-07-29T15:31:43.480Z,60.90
2022-07-29T15:34:10.394Z,60.50
2022-07-29T15:36:53.527Z,60.90
2022-07-29T15:40:00.195Z,61.60
2022-07-29T15:42:27.349Z,62.60
2022-07-29T15:44:54.281Z,62.30
2022-07-29T15:47:21.182Z,62.00
2022-07-29T15:49:49.538Z,61.00
2022-07-29T15:52:25.837Z,60.30
2022-07-29T15:54:54.897Z,59.10
2022-07-29T15:57:25.338Z,59.10
2022-07-29T15:59:52.947Z,59.20
2022-07-29T16:02:20.169Z,58.20
2022-07-29T16:04:47.442Z,57.20
2022-07-29T16:07:14.464Z,56.40
2022-07-29T16:09:42.110Z,55.90
2022-07-29T16:12:15.187Z,54.90
2022-07-29T16:14:45.819Z,53.90
2022-07-29T16:17:14.824Z,53.70
2022-07-29T16:19:43.052Z,52.30
2022-07-29T16:22:10.244Z,52.30
2022-07-29T16:24:37.251Z,51.60
2022-07-29T16:27:04.169Z,51.20
2022-07-29T16:29:31.090Z,51.60
2022-07-29T16:31:58.064Z,52.40
2022-07-29T16:34:24.960Z,56.00
2022-07-29T16:36:51.808Z,57.70
2022-07-29T16:42:59.733Z,60.40
2022-07-29T16:45:26.711Z,60.90
2022-07-29T16:48:00.912Z,61.70
2022-07-29T16:50:29.026Z,61.80
2022-07-29T16:52:56.566Z,62.90
2022-07-29T16:55:23.537Z,63.70
2022-07-29T16:57:52.939Z,64.40
2022-07-29T17:00:20.991Z,64.70
2022-07-29T17:02:47.888Z,65.20
2022-07-29T17:05:15.819Z,65.20
2022-07-29T17:07:43.140Z,64.30
2022-07-29T17:10:10.537Z,65.30
2022-07-29T17:12:38.387Z,89.00
2022-07-29T17:17:39.518Z,99.90
2022-07-29T17:20:19.764Z,99.90
2022-07-29T17:22:46.469Z,99.90
2022-07-29T17:25:20.469Z,99.90
2022-07-29T17:27:48.000Z,99.90
2022-07-29T17:30:15.086Z,99.90
2022-07-29T17:32:41.895Z,99.90
2022-07-29T17:35:28.850Z,99.90
2022-07-29T17:37:55.690Z,99.90
2022-07-29T17:40:59.873Z,99.90
2022-07-29T17:43:26.700Z,99.90
2022-07-29T17:45:55.868Z,99.90
2022-07-29T17:48:26.288Z,99.90
2022-07-29T17:50:53.301Z,99.90
2022-07-29T17:53:20.099Z,99.90
2022-07-29T17:55:48.700Z,99.90
2022-07-29T17:58:16.243Z,99.90
2022-07-29T18:00:43.247Z,99.90
2022-07-29T18:03:10.289Z,99.90
2022-07-29T18:05:37.486Z,99.90
2022-07-29T18:08:04.354Z,99.90
2022-07-29T18:10:31.379Z,99.90
2022-07-29T18:12:58.257Z,99.90
2022-07-29T18:15:25.204Z,99.90
2022-07-29T18:17:56.875Z,99.90
2022-07-29T18:20:25.876Z,99.90
2022-07-29T18:22:52.829Z,99.90
2022-07-29T18:25:19.663Z,99.90
2022-07-29T18:27:46.402Z,99.90
2022-07-29T18:30:15.075Z,99.90
2022-07-29T18:32:54.299Z,99.90
2022-07-29T18:35:28.867Z,99.90
2022-07-29T18:38:01.759Z,99.90
2022-07-29T18:41:06.886Z,99.90
2022-07-29T18:43:34.049Z,99.90
2022-07-29T18:46:00.770Z,99.90
2022-07-29T18:48:27.568Z,99.90
2022-07-29T18:50:54.334Z,99.90
2022-07-29T18:53:21.319Z,99.90
2022-07-29T18:55:48.409Z,99.90
2022-07-29T18:58:15.206Z,99.90
2022-07-29T19:00:41.994Z,99.90
2022-07-29T19:03:09.623Z,99.90
2022-07-29T19:05:36.551Z,99.90
2022-07-29T19:08:03.286Z,99.90
2022-07-29T19:10:30.501Z,99.90
2022-07-29T19:12:58.036Z,99.90
2022-07-29T19:15:24.920Z,99.90
2022-07-29T19:17:51.794Z,99.90
2022-07-29T19:20:18.697Z,99.90
2022-07-29T19:22:45.729Z,99.90
2022-07-29T19:25:12.498Z,99.90
2022-07-29T19:27:41.215Z,99.90
2022-07-29T19:30:09.526Z,99.90
2022-07-29T19:32:36.776Z,99.90
2022-07-29T19:35:23.853Z,99.90
2022-07-29T19:37:53.005Z,99.90
2022-07-29T19:44:00.892Z,99.90
2022-07-29T19:46:29.055Z,99.90
2022-07-29T19:48:55.980Z,99.90
2022-07-29T19:51:23.505Z,99.90
2022-07-29T19:53:50.799Z,99.90
2022-07-29T19:56:17.672Z,99.90
2022-07-29T19:58:44.779Z,99.90
2022-07-29T20:01:12.088Z,99.90
2022-07-29T20:03:44.911Z,99.90
2022-07-29T20:06:11.782Z,99.90
2022-07-29T20:08:39.008Z,99.90
2022-07-29T20:11:06.390Z,99.90
2022-07-29T20:13:35.269Z,99.90
2022-07-29T20:16:02.577Z,99.90
2022-07-29T20:18:29.470Z,99.90
2022-07-29T20:20:57.631Z,99.90
2022-07-29T20:23:24.834Z,99.90
2022-07-29T20:25:51.856Z,99.90
2022-07-29T20:28:18.642Z,99.90
2022-07-29T20:30:45.356Z,99.90
2022-07-29T20:33:15.052Z,99.90
2022-07-29T20:35:41.873Z,99.90
2022-07-29T20:38:08.578Z,99.90
2022-07-29T20:41:13.039Z,99.90
2022-07-29T20:43:40.221Z,99.90
2022-07-29T20:46:07.205Z,99.90
2022-07-29T20:48:34.215Z,99.90
2022-07-29T20:51:01.028Z,99.90
2022-07-29T20:53:28.081Z,99.90
2022-07-29T20:55:55.321Z,99.90
2022-07-29T20:58:22.228Z,99.90
2022-07-29T21:00:50.501Z,99.90
2022-07-29T21:03:18.304Z,99.90
2022-07-29T21:05:45.386Z,99.90
2022-07-29T21:08:12.181Z,99.90
2022-07-29T21:10:39.017Z,99.90
2022-07-29T21:13:05.724Z,99.90
2022-07-29T21:15:32.643Z,99.90
2022-07-29T21:18:04.903Z,99.90
2022-07-29T21:20:32.182Z,99.90
2022-07-29T21:23:00.517Z,99.90
2022-07-29T21:25:28.322Z,99.90
2022-07-29T21:28:13.691Z,99.90
2022-07-29T21:30:40.454Z,99.90
2022-07-29T21:33:07.319Z,99.90
2022-07-29T21:38:21.204Z,99.90
2022-07-29T21:40:48.758Z,99.90
2022-07-29T23:12:22.232Z,99.90
2022-07-29T23:14:48.993Z,99.90
2022-07-29T23:17:15.670Z,99.90
2022-07-29T23:19:42.610Z,99.90
2022-07-29T23:22:09.450Z,99.90
2022-07-29T23:24:36.241Z,99.90
2022-07-29T23:27:03.519Z,99.90
2022-07-29T23:29:34.949Z,99.90
2022-07-29T23:32:03.661Z,99.90
2022-07-29T23:34:30.413Z,99.90
2022-07-29T23:36:57.326Z,99.90
2022-07-29T23:39:24.314Z,99.90
2022-07-29T23:53:09.247Z,99.90
2022-07-29T23:55:39.231Z,99.90
2022-07-29T23:58:06.365Z,99.90
